Time;durP1;ratioP1;P1;durP2;ratioP2;P2;SDS_P1;SDS_P2;PMS_P1;PMS_P2;Temp;Humidity;BMP_temperature;BMP_pressure;BME280_temperature;BME280_humidity;BME280_pressure;Samples;Min_cycle;Max_cycle;Signal;HPM_P1;HPM_P2
2023/04/12 00:01:04;;;;;;;3.57;1.40;;;18.60;58.90;;;;;;5054344;28;20272;-45
2023/04/12 00:03:38;;;;;;;3.90;1.67;;;18.60;59.00;;;;;;5038803;28;20610;-45
2023/04/12 00:06:09;;;;;;;1.87;1.13;;;18.60;59.10;;;;;;5050652;28;20615;-47
2023/04/12 00:08:46;;;;;;;2.87;1.10;;;18.60;59.00;;;;;;5045308;28;20209;-46
2023/04/12 00:11:19;;;;;;;1.43;0.80;;;18.50;58.90;;;;;;5049177;28;20198;-47
2023/04/12 00:13:54;;;;;;;2.40;1.10;;;18.50;59.00;;;;;;5033944;28;20199;-46
2023/04/12 00:16:24;;;;;;;1.83;1.00;;;18.60;59.20;;;;;;5060798;28;20196;-47
2023/04/12 00:18:56;;;;;;;2.60;1.23;;;18.50;59.10;;;;;;5047907;28;20221;-46
2023/04/12 00:21:39;;;;;;;3.77;1.33;;;18.50;59.10;;;;;;5049820;28;20246;-47
2023/04/12 00:24:11;;;;;;;1.40;0.77;;;18.50;59.20;;;;;;5050089;28;20256;-47
2023/04/12 00:26:45;;;;;;;3.00;1.20;;;18.50;59.20;;;;;;5044046;28;20546;-47
2023/04/12 00:29:16;;;;;;;3.33;1.37;;;18.50;59.20;;;;;;5049448;28;20205;-47
2023/04/12 00:31:46;;;;;;;2.47;1.17;;;18.50;59.30;;;;;;5001036;28;20541;-47
2023/04/12 00:34:16;;;;;;;3.37;1.07;;;18.50;59.30;;;;;;5045251;28;20206;-47
2023/04/12 00:36:47;;;;;;;2.13;1.00;;;18.50;59.30;;;;;;5049582;28;20193;-46
2023/04/12 00:39:15;;;;;;;3.07;1.20;;;18.50;59.30;;;;;;5051172;28;20198;-47
2023/04/12 00:41:47;;;;;;;2.13;0.87;;;18.40;59.30;;;;;;5032211;28;20256;-47
2023/04/12 00:44:19;;;;;;;1.97;1.03;;;18.40;59.30;;;;;;5056441;28;20653;-47
2023/04/12 00:46:49;;;;;;;2.13;1.10;;;18.40;60.00;;;;;;5057306;28;20571;-47
2023/04/12 00:49:21;;;;;;;2.20;0.90;;;18.40;59.40;;;;;;5059348;28;20215;-47
2023/04/12 00:51:53;;;;;;;2.67;1.00;;;18.40;59.40;;;;;;5059744;28;20289;-47
2023/04/12 00:54:24;;;;;;;1.50;0.87;;;18.40;59.40;;;;;;5058435;28;20210;-47
2023/04/12 00:56:56;;;;;;;1.70;1.07;;;18.40;59.40;;;;;;5054593;28;20637;-47
2023/04/12 00:59:27;;;;;;;3.70;0.70;;;18.40;59.40;;;;;;5041142;28;20229;-47
2023/04/12 01:02:09;;;;;;;0.90;0.67;;;18.40;59.50;;;;;;5055973;28;20250;-46
2023/04/12 01:04:53;;;;;;;2.80;1.10;;;18.40;59.50;;;;;;5055863;28;20199;-46
2023/04/12 01:07:59;;;;;;;3.23;1.00;;;18.40;59.40;;;;;;5055174;28;20266;-46
2023/04/12 01:11:04;;;;;;;1.57;0.90;;;18.30;59.50;;;;;;5056849;28;20205;-46
2023/04/12 01:13:51;;;;;;;2.23;0.90;;;18.40;59.40;;;;;;5057634;28;20190;-47
2023/04/12 01:16:54;;;;;;;2.67;1.20;;;18.40;59.50;;;;;;5058709;28;20205;-46
2023/04/12 01:19:44;;;;;;;2.40;0.93;;;18.30;59.50;;;;;;5052079;28;20233;-46
2023/04/12 01:22:48;;;;;;;2.90;1.00;;;18.30;59.60;;;;;;5054608;28;20211;-46
2023/04/12 01:25:33;;;;;;;2.40;0.90;;;18.30;59.50;;;;;;5056578;28;20222;-46
2023/04/12 01:28:04;;;;;;;2.17;0.83;;;18.30;59.50;;;;;;5056826;28;20195;-46
2023/04/12 01:30:35;;;;;;;1.40;0.80;;;18.30;59.60;;;;;;5056002;28;20194;-46
2023/04/12 01:33:06;;;;;;;3.10;0.97;;;18.30;59.60;;;;;;5026953;28;20206;-47
2023/04/12 01:35:40;;;;;;;2.47;0.90;;;18.30;59.50;;;;;;5025403;28;20210;-47
2023/04/12 01:38:12;;;;;;;2.03;0.70;;;18.30;59.50;;;;;;5050342;28;20198;-47
2023/04/12 01:40:44;;;;;;;2.73;0.80;;;18.30;59.50;;;;;;5032006;28;20190;-46
2023/04/12 01:43:15;;;;;;;2.00;0.90;;;18.30;59.50;;;;;;5049502;28;20226;-47
2023/04/12 01:45:45;;;;;;;3.87;0.93;;;18.30;59.40;;;;;;5059066;28;20275;-47
2023/04/12 01:48:49;;;;;;;1.47;0.67;;;18.30;59.40;;;;;;5040487;28;20212;-47
2023/04/12 01:52:00;;;;;;;2.50;1.00;;;18.30;59.40;;;;;;5001507;28;20193;-45
2023/04/12 01:54:31;;;;;;;1.53;1.00;;;18.20;59.20;;;;;;5025542;28;20209;-45
2023/04/12 01:57:07;;;;;;;2.70;1.20;;;18.30;59.50;;;;;;5031875;28;20651;-46
2023/04/12 01:59:40;;;;;;;3.20;0.80;;;18.20;59.40;;;;;;5044420;28;20203;-45
2023/04/12 02:02:12;;;;;;;2.57;0.83;;;18.20;59.40;;;;;;5034861;28;20210;-45
2023/04/12 02:04:45;;;;;;;2.07;0.87;;;18.20;59.40;;;;;;5016398;28;20774;-45
2023/04/12 02:07:19;;;;;;;2.27;1.00;;;18.20;59.40;;;;;;5032658;28;20210;-45
2023/04/12 02:09:50;;;;;;;1.40;0.57;;;18.20;59.20;;;;;;5035305;28;20206;-45
2023/04/12 02:12:18;;;;;;;2.00;0.90;;;18.20;59.20;;;;;;5050955;28;20205;-45
2023/04/12 02:14:50;;;;;;;2.27;0.80;;;18.20;59.10;;;;;;5053370;28;20251;-45
2023/04/12 02:17:22;;;;;;;2.20;0.97;;;18.20;59.10;;;;;;5043505;28;20320;-45
2023/04/12 02:19:56;;;;;;;4.27;1.20;;;18.10;59.10;;;;;;5035912;28;20210;-45
2023/04/12 02:22:27;;;;;;;1.70;0.80;;;18.10;59.10;;;;;;5050894;28;20254;-45
2023/04/12 02:24:58;;;;;;;1.50;0.80;;;18.20;59.20;;;;;;5045093;28;20222;-45
2023/04/12 02:27:30;;;;;;;1.57;0.73;;;18.20;59.10;;;;;;5050758;28;20186;-45
2023/04/12 02:29:58;;;;;;;2.87;0.80;;;18.10;59.00;;;;;;5035650;28;20252;-46
2023/04/12 02:32:31;;;;;;;2.37;0.80;;;18.10;58.90;;;;;;5046001;28;20207;-47
2023/04/12 02:35:01;;;;;;;1.93;0.80;;;18.10;58.90;;;;;;5049854;28;20202;-46
2023/04/12 02:37:30;;;;;;;1.90;0.90;;;18.10;58.90;;;;;;5050365;28;20521;-46
2023/04/12 02:40:04;;;;;;;1.50;0.90;;;18.10;58.90;;;;;;5050537;28;20202;-46
2023/04/12 02:42:36;;;;;;;1.37;0.77;;;18.10;58.70;;;;;;5032549;28;20234;-45
2023/04/12 02:45:13;;;;;;;4.67;1.00;;;18.10;58.70;;;;;;5061893;28;20252;-46
2023/04/12 02:47:45;;;;;;;1.77;0.77;;;18.10;58.70;;;;;;5033067;28;20329;-45
2023/04/12 02:50:14;;;;;;;1.33;0.70;;;18.10;58.90;;;;;;5050327;28;20183;-45
2023/04/12 02:52:46;;;;;;;0.90;0.53;;;18.10;58.70;;;;;;5048211;28;20244;-45
2023/04/12 02:55:14;;;;;;;3.07;0.90;;;18.10;58.80;;;;;;5030320;28;20241;-45
2023/04/12 02:57:44;;;;;;;1.80;0.80;;;18.10;58.90;;;;;;5048254;28;20217;-45
2023/04/12 03:00:15;;;;;;;1.80;0.80;;;18.00;58.80;;;;;;5035546;28;20194;-45
2023/04/12 03:02:52;;;;;;;1.50;0.57;;;18.00;58.70;;;;;;5046606;28;20751;-45
2023/04/12 03:05:21;;;;;;;1.27;0.70;;;18.00;58.70;;;;;;5033139;28;20218;-45
2023/04/12 03:07:51;;;;;;;2.07;0.73;;;18.10;58.60;;;;;;5046710;28;20519;-45
2023/04/12 03:10:22;;;;;;;1.53;0.80;;;18.10;58.70;;;;;;5049853;28;20224;-45
2023/04/12 03:12:54;;;;;;;2.00;0.90;;;18.00;59.30;;;;;;5047728;28;20194;-45
2023/04/12 03:15:26;;;;;;;1.10;0.60;;;18.00;58.60;;;;;;5046486;28;20249;-45
2023/04/12 03:18:03;;;;;;;1.60;0.80;;;18.00;59.20;;;;;;5049479;28;20562;-45
2023/04/12 03:20:32;;;;;;;1.57;0.67;;;18.00;58.80;;;;;;5046737;28;20305;-45
2023/04/12 03:23:03;;;;;;;1.23;0.70;;;18.00;58.70;;;;;;5049422;28;20544;-45
2023/04/12 03:25:36;;;;;;;2.10;0.70;;;18.00;58.60;;;;;;5048513;28;20234;-45
2023/04/12 03:28:05;;;;;;;1.53;0.80;;;18.00;58.60;;;;;;5040862;28;20190;-45
2023/04/12 03:30:36;;;;;;;1.20;0.40;;;18.00;58.80;;;;;;5047632;28;20674;-45
2023/04/12 03:33:10;;;;;;;1.10;0.60;;;18.00;58.80;;;;;;5032961;28;20266;-45
2023/04/12 03:35:41;;;;;;;1.00;0.63;;;18.00;58.70;;;;;;5033025;28;20202;-45
2023/04/12 03:38:13;;;;;;;1.40;0.57;;;18.00;58.70;;;;;;5032584;28;20631;-45
2023/04/12 03:40:42;;;;;;;1.07;0.67;;;17.90;58.60;;;;;;5040988;28;20198;-46
2023/04/12 03:43:10;;;;;;;4.47;0.80;;;18.00;58.90;;;;;;5033482;28;20858;-46
2023/04/12 03:45:41;;;;;;;1.13;0.70;;;18.00;59.10;;;;;;5035355;28;20647;-46
2023/04/12 03:48:24;;;;;;;2.80;1.00;;;18.10;59.40;;;;;;5048011;28;20309;-46
2023/04/12 03:50:58;;;;;;;1.37;0.90;;;18.20;59.50;;;;;;5046105;28;20221;-45
2023/04/12 03:53:31;;;;;;;1.00;0.53;;;18.20;59.40;;;;;;5032036;28;20670;-45
2023/04/12 03:56:03;;;;;;;1.70;0.73;;;18.20;59.30;;;;;;5039187;28;20210;-45
2023/04/12 03:58:34;;;;;;;1.30;0.80;;;18.40;59.00;;;;;;5034472;28;20194;-45
2023/04/12 04:01:08;;;;;;;1.73;0.57;;;18.40;58.90;;;;;;5041501;28;20190;-45
2023/04/12 04:03:45;;;;;;;0.90;0.57;;;18.50;58.80;;;;;;5049228;28;20284;-45
2023/04/12 04:06:16;;;;;;;2.10;0.70;;;18.50;58.70;;;;;;5049227;28;20202;-45
2023/04/12 04:08:47;;;;;;;1.93;1.00;;;18.60;58.40;;;;;;5030022;28;20207;-45
2023/04/12 04:11:17;;;;;;;1.47;0.70;;;18.60;58.30;;;;;;5041312;28;20189;-45
2023/04/12 04:13:48;;;;;;;1.70;0.70;;;18.70;58.10;;;;;;5053115;28;20203;-46
2023/04/12 04:16:16;;;;;;;1.43;0.63;;;18.70;58.00;;;;;;5048453;28;20198;-46
2023/04/12 04:18:48;;;;;;;2.20;0.80;;;18.80;57.80;;;;;;5020922;28;20285;-46
2023/04/12 04:21:21;;;;;;;2.03;0.60;;;18.80;57.60;;;;;;5040770;28;20202;-46
2023/04/12 04:23:52;;;;;;;1.47;0.73;;;18.80;57.50;;;;;;5041303;28;20217;-45
2023/04/12 04:26:31;;;;;;;1.00;0.50;;;18.90;57.50;;;;;;5023740;28;20233;-45
2023/04/12 04:29:07;;;;;;;2.27;0.80;;;18.90;57.30;;;;;;5035364;28;20186;-45
2023/04/12 04:31:51;;;;;;;0.67;0.50;;;19.00;57.20;;;;;;5045716;28;20300;-45
2023/04/12 04:34:24;;;;;;;1.47;0.70;;;19.00;57.00;;;;;;5048067;28;20557;-45
2023/04/12 04:36:57;;;;;;;1.97;0.70;;;19.10;57.30;;;;;;5044136;28;20232;-46
2023/04/12 04:39:30;;;;;;;1.30;0.57;;;19.10;57.20;;;;;;5035532;28;20256;-46
2023/04/12 04:42:00;;;;;;;1.17;0.60;;;19.10;57.10;;;;;;5054543;28;20212;-46
2023/04/12 04:44:34;;;;;;;2.23;0.83;;;19.10;57.00;;;;;;5038922;28;20700;-46
2023/04/12 04:47:08;;;;;;;1.13;0.60;;;19.20;57.00;;;;;;5054742;28;20263;-46
2023/04/12 04:49:40;;;;;;;1.37;0.47;;;19.20;56.70;;;;;;5023169;28;20280;-45
2023/04/12 04:52:09;;;;;;;1.70;0.70;;;19.30;56.30;;;;;;5048989;28;20668;-46
2023/04/12 04:54:40;;;;;;;2.13;0.53;;;19.20;56.30;;;;;;5043537;28;20205;-46
2023/04/12 04:57:10;;;;;;;1.20;0.60;;;19.20;56.30;;;;;;5052829;28;20207;-46
2023/04/12 04:59:55;;;;;;;1.13;0.57;;;19.20;56.20;;;;;;5047069;28;20186;-46
2023/04/12 05:02:24;;;;;;;0.90;0.60;;;19.10;56.30;;;;;;5048738;28;20234;-46
2023/04/12 05:04:58;;;;;;;1.63;0.40;;;19.10;56.40;;;;;;5046937;28;20211;-46
2023/04/12 05:07:30;;;;;;;0.93;0.60;;;19.00;56.40;;;;;;5046306;28;20651;-46
2023/04/12 05:10:05;;;;;;;1.07;0.50;;;18.90;56.50;;;;;;5031271;28;20194;-46
2023/04/12 05:12:39;;;;;;;1.03;0.60;;;19.00;56.60;;;;;;5046917;28;20220;-46
2023/04/12 05:15:11;;;;;;;0.97;0.60;;;18.90;56.60;;;;;;5035218;28;20265;-46
2023/04/12 05:17:39;;;;;;;0.90;0.40;;;18.90;56.70;;;;;;5047974;28;20198;-46
2023/04/12 05:20:10;;;;;;;1.63;0.50;;;18.90;56.70;;;;;;5045109;28;20194;-46
2023/04/12 05:22:40;;;;;;;0.77;0.50;;;18.80;56.60;;;;;;5040634;28;20226;-46
2023/04/12 05:25:11;;;;;;;1.27;0.60;;;18.80;56.70;;;;;;5048231;28;20230;-46
2023/04/12 05:27:43;;;;;;;0.50;0.50;;;18.80;56.80;;;;;;5049863;28;20310;-46
2023/04/12 05:30:14;;;;;;;1.33;0.70;;;18.70;56.80;;;;;;5031699;28;20202;-46
2023/04/12 05:32:46;;;;;;;2.70;0.50;;;18.70;56.90;;;;;;5046911;28;20643;-45
2023/04/12 05:35:17;;;;;;;1.63;0.60;;;18.70;57.60;;;;;;5051453;28;20271;-53
2023/04/12 05:37:49;;;;;;;0.80;0.40;;;18.60;57.10;;;;;;5054273;28;20202;-46
2023/04/12 05:40:21;;;;;;;2.40;0.50;;;18.60;57.10;;;;;;5055695;28;20197;-46
2023/04/12 05:42:52;;;;;;;2.90;0.70;;;18.60;57.70;;;;;;5046459;28;20222;-45
2023/04/12 05:45:22;;;;;;;3.27;0.77;;;18.60;57.30;;;;;;5051204;28;20252;-46
2023/04/12 05:47:52;;;;;;;2.20;0.70;;;18.50;57.30;;;;;;5051455;28;20240;-46
2023/04/12 05:50:22;;;;;;;3.00;0.70;;;18.50;57.40;;;;;;5050449;28;20187;-46
2023/04/12 05:52:54;;;;;;;1.43;0.40;;;18.50;57.20;;;;;;5049145;28;20252;-45
2023/04/12 05:55:32;;;;;;;1.07;0.57;;;18.40;57.20;;;;;;5034186;28;20217;-45
2023/04/12 05:58:05;;;;;;;0.60;0.50;;;18.40;57.30;;;;;;5032755;28;20202;-45
2023/04/12 06:00:35;;;;;;;2.20;0.60;;;18.40;57.30;;;;;;5044768;28;20209;-47
2023/04/12 06:03:10;;;;;;;1.37;0.70;;;18.40;57.30;;;;;;5033436;28;20218;-47
2023/04/12 06:05:42;;;;;;;2.17;0.60;;;18.30;57.50;;;;;;5050999;28;20217;-48
2023/04/12 06:08:13;;;;;;;2.10;0.60;;;18.40;57.60;;;;;;5048123;28;20214;-47
2023/04/12 06:10:44;;;;;;;2.23;0.60;;;18.30;57.60;;;;;;5050118;28;20232;-45
2023/04/12 06:13:15;;;;;;;1.30;0.77;;;18.30;57.70;;;;;;5050798;28;20213;-46
2023/04/12 06:15:45;;;;;;;1.40;0.50;;;18.30;57.70;;;;;;5050775;28;20206;-46
2023/04/12 06:18:14;;;;;;;1.13;0.67;;;18.30;57.70;;;;;;5048845;28;20213;-46
2023/04/12 06:20:45;;;;;;;1.00;0.50;;;18.30;57.80;;;;;;5044295;28;20214;-46
2023/04/12 06:23:15;;;;;;;2.07;0.60;;;18.20;57.80;;;;;;5049885;28;20242;-45
2023/04/12 06:25:44;;;;;;;0.80;0.43;;;18.20;57.90;;;;;;5055580;28;20230;-46
2023/04/12 06:28:15;;;;;;;1.20;0.50;;;18.20;57.90;;;;;;5049840;28;20191;-45
2023/04/12 06:30:47;;;;;;;1.27;0.50;;;18.20;58.10;;;;;;5028098;28;20252;-45
2023/04/12 06:33:21;;;;;;;2.53;0.80;;;18.20;58.20;;;;;;5050920;28;20194;-45
2023/04/12 06:35:51;;;;;;;53.10;13.07;;;18.20;58.30;;;;;;5041834;28;20678;-45
2023/04/12 06:38:21;;;;;;;53.03;13.47;;;18.20;59.20;;;;;;5044038;28;20278;-46
2023/04/12 06:40:52;;;;;;;81.60;22.10;;;18.30;59.10;;;;;;5026672;28;20209;-47
2023/04/12 06:43:24;;;;;;;135.23;31.60;;;18.30;59.90;;;;;;5042991;28;20265;-46
2023/04/12 06:45:55;;;;;;;136.30;32.90;;;18.40;60.50;;;;;;5030437;28;20202;-46
2023/04/12 06:48:28;;;;;;;107.97;29.30;;;18.50;60.50;;;;;;5042544;28;20311;-46
2023/04/12 06:50:57;;;;;;;110.40;28.03;;;18.60;60.60;;;;;;5044842;28;20191;-47
2023/04/12 06:53:29;;;;;;;95.60;25.57;;;18.60;60.10;;;;;;5047363;28;20823;-47
2023/04/12 06:56:03;;;;;;;92.13;25.10;;;18.60;60.00;;;;;;5046231;28;20571;-47
2023/04/12 06:58:31;;;;;;;84.23;23.10;;;18.70;60.00;;;;;;5031120;28;20216;-46
2023/04/12 07:01:13;;;;;;;79.17;22.77;;;18.70;60.00;;;;;;5044169;28;20510;-46
2023/04/12 07:03:44;;;;;;;75.40;20.90;;;18.80;59.70;;;;;;5041215;28;20214;-46
2023/04/12 07:06:15;;;;;;;79.53;20.63;;;18.80;59.50;;;;;;5049738;28;20512;-46
2023/04/12 07:08:53;;;;;;;66.43;20.17;;;18.90;59.20;;;;;;5037308;28;20226;-46
2023/04/12 07:11:27;;;;;;;65.37;16.50;;;18.90;59.70;;;;;;5045538;28;20185;-46
2023/04/12 07:13:58;;;;;;;60.53;16.97;;;19.00;59.00;;;;;;5050033;28;20611;-46
2023/04/12 07:16:32;;;;;;;51.70;15.57;;;19.00;58.90;;;;;;5049423;28;20643;-45
2023/04/12 07:19:04;;;;;;;50.27;14.87;;;19.00;58.70;;;;;;5009918;28;20280;-46
2023/04/12 07:21:36;;;;;;;48.83;13.93;;;19.00;58.50;;;;;;5031931;28;20204;-46
2023/04/12 07:24:07;;;;;;;46.23;13.50;;;18.90;58.40;;;;;;5050368;28;20233;-46
2023/04/12 07:26:38;;;;;;;44.43;13.13;;;18.90;58.40;;;;;;5051030;28;20579;-45
2023/04/12 07:29:09;;;;;;;39.93;12.80;;;18.90;58.30;;;;;;5050829;28;20194;-45
2023/04/12 07:31:39;;;;;;;43.13;12.63;;;18.80;58.40;;;;;;5048145;28;20225;-47
2023/04/12 07:34:07;;;;;;;41.10;11.00;;;18.80;58.30;;;;;;5051240;28;20241;-49
2023/04/12 07:36:36;;;;;;;36.37;10.43;;;18.80;58.40;;;;;;5049482;28;20202;-47
2023/04/12 07:39:05;;;;;;;33.53;9.77;;;18.70;58.40;;;;;;5051158;28;20225;-46
2023/04/12 07:41:33;;;;;;;30.17;9.67;;;18.70;58.50;;;;;;5057797;28;20197;-45
2023/04/12 07:44:05;;;;;;;30.00;9.67;;;18.80;58.40;;;;;;5052589;28;20229;-45
2023/04/12 07:46:34;;;;;;;29.77;8.57;;;18.70;58.50;;;;;;5048415;28;20321;-45
2023/04/12 07:49:06;;;;;;;28.77;8.67;;;18.70;58.50;;;;;;5048915;28;20377;-45
2023/04/12 07:51:36;;;;;;;25.00;8.20;;;18.60;58.60;;;;;;5032071;28;20215;-46
2023/04/12 07:54:05;;;;;;;24.17;7.43;;;18.60;58.60;;;;;;5032024;28;20202;-46
2023/04/12 07:56:37;;;;;;;22.33;7.50;;;18.60;58.70;;;;;;5044823;28;20225;-45
2023/04/12 07:59:17;;;;;;;22.90;7.30;;;18.60;58.80;;;;;;5049010;28;20202;-45
2023/04/12 08:01:47;;;;;;;22.90;6.57;;;18.50;58.60;;;;;;5049622;28;20205;-46
2023/04/12 08:04:20;;;;;;;22.30;6.23;;;18.50;58.80;;;;;;5049086;28;20229;-46
2023/04/12 08:07:10;;;;;;;20.63;6.43;;;18.50;58.80;;;;;;5048063;28;20213;-45
2023/04/12 08:09:42;;;;;;;22.80;6.40;;;18.50;58.70;;;;;;5054361;28;20211;-48
2023/04/12 08:12:12;;;;;;;15.73;5.80;;;18.50;58.90;;;;;;5046963;28;20190;-45
2023/04/12 08:14:57;;;;;;;17.90;5.33;;;18.40;58.80;;;;;;5045833;28;20825;-46
2023/04/12 08:17:30;;;;;;;18.10;5.70;;;18.40;58.90;;;;;;5049255;28;20198;-46
2023/04/12 08:20:03;;;;;;;13.67;5.07;;;18.40;58.90;;;;;;5046197;28;20638;-46
2023/04/12 08:22:31;;;;;;;19.97;5.60;;;18.40;58.80;;;;;;5031022;28;20198;-46
2023/04/12 08:24:59;;;;;;;16.03;5.43;;;18.30;58.80;;;;;;5052252;28;20222;-45
2023/04/12 08:27:31;;;;;;;14.20;4.73;;;18.40;58.80;;;;;;5048722;28;20226;-46
2023/04/12 08:30:02;;;;;;;13.93;4.40;;;18.40;58.90;;;;;;5031000;28;20616;-46
2023/04/12 08:32:46;;;;;;;14.63;4.27;;;18.40;58.90;;;;;;5043522;28;20293;-45
2023/04/12 08:35:17;;;;;;;11.03;4.17;;;18.30;58.80;;;;;;5048324;28;20774;-45
2023/04/12 08:37:46;;;;;;;12.53;3.87;;;18.30;58.90;;;;;;5048602;28;20213;-46
2023/04/12 08:40:18;;;;;;;12.27;4.23;;;18.30;58.90;;;;;;5051166;28;20240;-44
2023/04/12 08:42:51;;;;;;;9.90;3.73;;;18.30;58.90;;;;;;5043673;28;20547;-46
2023/04/12 08:45:29;;;;;;;11.77;3.63;;;18.30;58.90;;;;;;5030282;28;20622;-47
2023/04/12 08:48:01;;;;;;;9.97;3.47;;;18.30;58.90;;;;;;5031138;28;20198;-47
2023/04/12 08:50:32;;;;;;;11.50;3.77;;;18.30;58.80;;;;;;5048264;28;20723;-45
2023/04/12 08:53:02;;;;;;;9.57;3.20;;;18.30;58.80;;;;;;5030555;28;20209;-45
2023/04/12 08:55:31;;;;;;;9.50;3.33;;;18.30;58.70;;;;;;5046891;28;20218;-46
2023/04/12 08:58:06;;;;;;;12.77;3.63;;;18.30;58.80;;;;;;5048547;28;20191;-46
2023/04/12 09:00:38;;;;;;;9.17;2.80;;;18.20;58.80;;;;;;5031337;28;20206;-46
2023/04/12 09:03:10;;;;;;;6.70;2.83;;;18.20;58.80;;;;;;5054503;28;20771;-46
2023/04/12 09:05:40;;;;;;;11.30;3.10;;;18.20;58.80;;;;;;5052822;28;20323;-46
2023/04/12 09:08:07;;;;;;;8.60;3.10;;;18.20;58.80;;;;;;5053986;28;20221;-46
2023/04/12 09:10:38;;;;;;;7.37;3.00;;;18.20;58.80;;;;;;5049057;28;20208;-45
2023/04/12 09:13:09;;;;;;;8.63;3.10;;;18.20;58.80;;;;;;5052089;28;20190;-46
2023/04/12 09:15:49;;;;;;;6.23;2.37;;;18.20;58.80;;;;;;5035187;28;20203;-46
2023/04/12 09:18:17;;;;;;;7.67;2.50;;;18.20;58.80;;;;;;5033636;28;20481;-46
2023/04/12 09:20:48;;;;;;;5.77;2.37;;;18.20;58.80;;;;;;5029762;28;20260;-46
2023/04/12 09:23:24;;;;;;;6.93;2.70;;;18.20;58.80;;;;;;5055476;28;20194;-45
2023/04/12 09:26:08;;;;;;;6.33;1.90;;;18.20;58.80;;;;;;5034808;28;20296;-46
2023/04/12 09:28:45;;;;;;;4.40;1.70;;;18.20;58.70;;;;;;5050684;28;20209;-45
2023/04/12 09:31:20;;;;;;;4.73;1.80;;;18.30;58.70;;;;;;5048625;28;20255;-46
2023/04/12 09:33:50;;;;;;;6.93;2.40;;;18.30;58.70;;;;;;5051724;28;20821;-46
2023/04/12 09:36:18;;;;;;;7.30;2.33;;;18.20;58.80;;;;;;5034825;28;20186;-45
2023/04/12 09:39:03;;;;;;;3.07;1.77;;;18.20;58.70;;;;;;5052924;28;20260;-46
2023/04/12 09:41:35;;;;;;;5.13;2.07;;;18.30;58.70;;;;;;5051922;28;20204;-46
2023/04/12 09:44:09;;;;;;;6.77;2.17;;;18.20;58.80;;;;;;5049037;28;20222;-46
2023/04/12 09:46:50;;;;;;;5.23;2.03;;;18.20;58.70;;;;;;5049243;28;20248;-46
2023/04/12 09:49:41;;;;;;;5.83;1.87;;;18.20;58.70;;;;;;5040833;28;20228;-46
2023/04/12 09:52:14;;;;;;;4.03;1.70;;;18.30;58.80;;;;;;5024722;28;20194;-46
2023/04/12 09:54:49;;;;;;;5.33;1.60;;;18.20;59.40;;;;;;5048001;28;20542;-46
2023/04/12 09:57:22;;;;;;;3.10;1.57;;;18.30;58.80;;;;;;5052626;28;20194;-46
2023/04/12 09:59:59;;;;;;;5.20;1.90;;;18.30;58.90;;;;;;5033408;28;20236;-46
2023/04/12 10:02:42;;;;;;;4.57;1.67;;;18.30;58.90;;;;;;5054060;28;20234;-46
2023/04/12 10:05:19;;;;;;;5.37;1.80;;;18.30;58.90;;;;;;5024890;28;20218;-46
2023/04/12 10:07:48;;;;;;;3.70;1.70;;;18.30;59.00;;;;;;5040364;28;20214;-45
2023/04/12 10:10:19;;;;;;;4.10;1.60;;;18.30;58.80;;;;;;5055871;28;20194;-44
2023/04/12 10:12:52;;;;;;;3.40;1.43;;;18.30;58.80;;;;;;5030398;28;20797;-45
2023/04/12 10:15:24;;;;;;;4.87;2.03;;;18.30;58.80;;;;;;5051352;28;20228;-45
2023/04/12 10:17:54;;;;;;;4.60;1.90;;;18.40;58.80;;;;;;5027273;28;20202;-46
2023/04/12 10:20:22;;;;;;;2.63;1.53;;;18.30;58.70;;;;;;5049792;28;20222;-46
2023/04/12 10:22:58;;;;;;;3.83;1.53;;;18.40;58.80;;;;;;5049386;28;20208;-45
2023/04/12 10:25:30;;;;;;;3.87;1.87;;;18.40;58.80;;;;;;5050752;28;20229;-46
2023/04/12 10:28:20;;;;;;;3.67;1.60;;;18.40;58.80;;;;;;5050887;28;20198;-45
2023/04/12 10:30:56;;;;;;;5.13;1.80;;;18.30;58.70;;;;;;5029849;28;20198;-45
2023/04/12 10:33:27;;;;;;;3.53;1.70;;;18.40;58.80;;;;;;5034165;28;20585;-45
2023/04/12 10:36:07;;;;;;;3.77;2.00;;;18.40;58.90;;;;;;5055208;28;20229;-46
2023/04/12 10:39:08;;;;;;;3.97;1.47;;;18.40;58.90;;;;;;5012721;28;20195;-45
2023/04/12 10:42:19;;;;;;;5.13;2.00;;;18.40;58.70;;;;;;5042396;28;20619;-47
2023/04/12 10:44:54;;;;;;;4.93;2.03;;;18.40;58.70;;;;;;5036384;28;20226;-47
2023/04/12 10:47:50;;;;;;;3.73;1.50;;;18.40;58.70;;;;;;5034554;28;20198;-47
2023/04/12 10:50:34;;;;;;;3.80;1.87;;;18.40;58.70;;;;;;5051309;28;20191;-46
2023/04/12 10:53:21;;;;;;;4.97;2.23;;;18.40;58.80;;;;;;5050479;28;20198;-46
2023/04/12 10:55:53;;;;;;;3.90;1.60;;;18.40;58.80;;;;;;5044414;28;20202;-46
2023/04/12 10:58:48;;;;;;;3.67;1.40;;;18.40;58.80;;;;;;5054533;28;20260;-46
2023/04/12 11:01:20;;;;;;;3.47;1.73;;;18.40;58.70;;;;;;5045404;28;20194;-45
2023/04/12 11:04:24;;;;;;;3.23;1.73;;;18.40;58.90;;;;;;5050422;28;20307;-46
2023/04/12 11:07:05;;;;;;;2.37;1.47;;;18.40;59.00;;;;;;5045184;28;20240;-45
2023/04/12 11:10:00;;;;;;;3.50;1.60;;;18.40;58.80;;;;;;5049710;28;20195;-44
2023/04/12 11:12:37;;;;;;;3.70;1.50;;;18.40;58.70;;;;;;5048741;28;20688;-45
2023/04/12 11:15:18;;;;;;;2.80;1.70;;;18.50;58.80;;;;;;5019698;28;20214;-45
2023/04/12 11:17:59;;;;;;;5.47;2.27;;;18.40;58.80;;;;;;5049459;28;20186;-46
2023/04/12 11:20:32;;;;;;;4.60;1.87;;;18.40;58.80;;;;;;5035237;28;20213;-46
2023/04/12 11:23:04;;;;;;;4.10;1.73;;;18.50;58.80;;;;;;5033075;28;20195;-46
2023/04/12 11:25:39;;;;;;;5.53;2.03;;;18.40;59.20;;;;;;5032510;28;20671;-46
2023/04/12 11:28:17;;;;;;;4.13;1.97;;;18.40;58.60;;;;;;5038328;28;20357;-45
2023/04/12 11:30:57;;;;;;;4.20;2.20;;;18.50;58.70;;;;;;5031478;28;20190;-46
2023/04/12 11:33:31;;;;;;;4.27;2.03;;;18.40;58.60;;;;;;5037509;28;20197;-46
2023/04/12 11:36:13;;;;;;;4.23;2.07;;;18.40;58.60;;;;;;5037883;28;20195;-46
2023/04/12 11:38:44;;;;;;;3.93;2.10;;;18.40;58.60;;;;;;5051356;28;20194;-46
2023/04/12 11:41:17;;;;;;;5.13;1.70;;;18.40;58.80;;;;;;5054298;28;20202;-47
2023/04/12 11:43:48;;;;;;;4.20;1.70;;;18.40;58.80;;;;;;5015915;28;20251;-46
2023/04/12 11:46:18;;;;;;;4.03;1.70;;;18.40;58.80;;;;;;5054185;28;20193;-46
2023/04/12 11:48:50;;;;;;;5.47;1.97;;;18.40;58.80;;;;;;5032943;28;20191;-45
2023/04/12 11:51:25;;;;;;;2.07;1.77;;;18.40;58.70;;;;;;5052981;28;20205;-46
2023/04/12 11:54:00;;;;;;;2.77;1.57;;;18.40;58.80;;;;;;5052637;28;20201;-46
2023/04/12 11:56:32;;;;;;;4.63;1.93;;;18.40;58.80;;;;;;5051309;28;20752;-45
2023/04/12 11:59:06;;;;;;;4.53;1.87;;;18.40;58.70;;;;;;5055284;28;20190;-45
2023/04/12 12:01:39;;;;;;;4.73;1.90;;;18.40;58.70;;;;;;5037266;28;20206;-45
2023/04/12 12:04:16;;;;;;;3.67;2.07;;;18.40;58.70;;;;;;5040216;28;20432;-46
2023/04/12 12:06:49;;;;;;;4.07;1.90;;;18.40;58.70;;;;;;5046591;28;20551;-45
2023/04/12 12:09:21;;;;;;;3.20;2.03;;;18.40;58.70;;;;;;5050474;28;20186;-45
2023/04/12 12:11:53;;;;;;;2.57;1.80;;;18.40;58.80;;;;;;5049777;28;20240;-47
2023/04/12 12:14:26;;;;;;;4.80;2.10;;;18.40;58.70;;;;;;5032063;28;20208;-45
2023/04/12 12:16:58;;;;;;;4.40;2.20;;;18.30;58.70;;;;;;5047267;28;20194;-46
2023/04/12 12:19:36;;;;;;;3.50;1.87;;;18.40;58.60;;;;;;5044432;28;20225;-46
2023/04/12 12:22:20;;;;;;;2.60;1.70;;;18.40;58.60;;;;;;5031423;28;20213;-47
2023/04/12 12:25:08;;;;;;;4.10;2.17;;;18.40;58.50;;;;;;5045816;28;20214;-47
2023/04/12 12:27:43;;;;;;;4.43;1.73;;;18.40;58.50;;;;;;5050902;28;20219;-47
2023/04/12 12:30:19;;;;;;;4.57;1.83;;;18.40;58.60;;;;;;5047683;28;20208;-46
2023/04/12 12:32:59;;;;;;;4.10;1.83;;;18.40;58.60;;;;;;5051387;28;20217;-52
2023/04/12 12:35:33;;;;;;;4.27;1.60;;;18.40;58.50;;;;;;5052465;28;20213;-46
2023/04/12 12:38:07;;;;;;;3.10;1.70;;;18.40;58.50;;;;;;5052789;28;20217;-47
2023/04/12 12:40:38;;;;;;;4.47;1.80;;;18.40;58.50;;;;;;5036058;28;20556;-46
2023/04/12 12:43:16;;;;;;;3.43;1.93;;;18.40;58.50;;;;;;5048854;28;20214;-46
2023/04/12 12:45:44;;;;;;;2.87;1.70;;;18.40;58.50;;;;;;5052911;28;20583;-46
2023/04/12 12:48:12;;;;;;;3.20;1.77;;;18.40;58.40;;;;;;5061973;28;20189;-46
2023/04/12 12:50:43;;;;;;;4.27;1.80;;;18.30;58.40;;;;;;5050173;28;20202;-46
2023/04/12 12:53:17;;;;;;;3.73;1.90;;;18.40;58.50;;;;;;5053045;28;20207;-46
2023/04/12 12:55:52;;;;;;;4.63;1.80;;;18.30;58.40;;;;;;5039531;28;20527;-46
2023/04/12 12:58:25;;;;;;;5.43;2.17;;;18.30;58.40;;;;;;5050785;28;20209;-46
2023/04/12 13:00:54;;;;;;;4.83;2.03;;;18.30;58.30;;;;;;5050459;28;20201;-46
2023/04/12 13:03:25;;;;;;;4.40;1.83;;;18.30;58.20;;;;;;5055207;28;20194;-46
2023/04/12 13:05:55;;;;;;;4.13;1.87;;;18.30;58.40;;;;;;5051934;28;20230;-46
2023/04/12 13:08:28;;;;;;;3.10;1.53;;;18.30;58.30;;;;;;5049209;28;20214;-46
2023/04/12 13:11:00;;;;;;;2.60;1.60;;;18.40;58.50;;;;;;5049298;28;20244;-46
2023/04/12 13:13:29;;;;;;;2.53;1.63;;;18.40;58.50;;;;;;5052323;28;20213;-46
2023/04/12 13:15:59;;;;;;;3.13;1.67;;;18.40;58.50;;;;;;5056496;28;20198;-46
2023/04/12 13:18:31;;;;;;;4.00;2.03;;;18.30;58.50;;;;;;5034566;28;20198;-46